Whitingham, VT (05361)

5:00 AM EDT on August 31, 2014 (GMT -0400)
South of the Village | Change Station
CLOSE
Current Station
Personal Weather Station
Location: Jacksonville, VT
Elevation: 1545 ft
Nearby Weather Stations

Elev 1545 ft 42.76 °N, 72.81 °W | Updated 39 seconds ago

Mostly Cloudy
Mostly Cloudy
67.1 °F
Feels Like 67.1 °F
N
6.9
Wind Variable Wind from South
Gusts 17.4 mph

Today
High -- | Low -- °F
--% Chance of Precip.
Yesterday
High -- | Low -- °F
Precip. -- in
6:15 AM 7:27 PM
Waxing Crescent, 29% visible
Pressure 30.07 in
Visibility 10.0 miles
Clouds Mostly Cloudy 2200 ft
Dew Point 64 °F
Humidity 91%
Rainfall 0.00 in
Snow Depth Not available.
UV 0 out of 12
Pollen 9.00 out of 12
PM2.5 Good
Flu Activity Not available.
METAR KAQW 310852Z AUTO 00000KT 10SM BKN022 19/17 A3008 RMK AO2 SLP183 T01890172 58007

More Conditions Fewer Conditions

Pressure 30.07 in
Visibility 10.0 miles
Clouds Mostly Cloudy 2200 ft
Dew Point 64 °F
Humidity 91%
Rainfall 0.00 in
Snow Depth Not available.
UV 0 out of 12
Pollen 9.00 out of 12
PM2.5 Good
Flu Activity Not available.
METAR KAQW 310852Z AUTO 00000KT 10SM BKN022 19/17 A3008 RMK AO2 SLP183 T01890172 58007

More Conditions Fewer Conditions

10-Day Weather Forecast

Almanac

Astronomy

Aug. 31, 2014 Rise Set
Actual Time 6:15 AM EDT 7:27 PM EDT
Civil Twilight 5:45 AM EDT 7:56 PM EDT
Nautical Twilight 5:10 AM EDT 8:31 PM EDT
Astronomical Twilight 4:33 AM EDT 9:08 PM EDT
Moon 12:07 PM EDT 10:31 PM EDT
Length of Visible Light 14h 10m
Length of Day
13h 12m
Tomorrow will be 2m 47s shorter.
Waxing Crescent, 29% of the Moon is Illuminated
Today
Waxing Crescent
Sep 2
First Quarter
Sep 8
Full
Sep 15
Last Quarter
Sep 24
New

Today's Extremes

State Highs State Lows

Community

WunderPhotos

Upload Photos

1,748,834 photos uploaded!

Nearby

Air Quality

  Air Quality AQ Index Pollutant
Yesterday Good
OZONE
Yesterday Good
PM2.5
Current Good
PM2.5
Sunday Good
PM2.5
Sunday Good
OZONE
Monday Good
PM2.5
Tuesday Good
PM2.5

Snow Depth

Station Depth Elevation
No new snow has been reported.

Earthquake Activity

City Distance Mag. Time & Date
No recent earthquake activity has been reported nearby.
Minimum magnitude displayed is 2.5.

Coastal Water Temperatures

Place Temperature
No Stations Reporting

Nearby Weather Stations